Time;durP1;ratioP1;P1;durP2;ratioP2;P2;SDS_P1;SDS_P2;PMS_P1;PMS_P2;Temp;Humidity;BMP_temperature;BMP_pressure;BME280_temperature;BME280_humidity;BME280_pressure;Samples;Min_cycle;Max_cycle;Signal;HPM_P1;HPM_P2
2023/04/08 00:03:37;;;;;;;15.20;8.20;;;;;;;10.53;79.73;100935.05;682220;1260;139312;-86
2023/04/08 00:18:41;;;;;;;17.70;10.20;;;;;;;10.38;79.41;100951.42;682487;1261;138699;-85
2023/04/08 00:33:44;;;;;;;16.10;8.80;;;;;;;10.19;79.25;100955.63;682476;1262;139047;-89
2023/04/08 00:48:48;;;;;;;16.80;8.60;;;;;;;10.09;79.28;100964.80;682402;1263;138706;-89
2023/04/08 01:04:29;;;;;;;13.50;9.20;;;;;;;9.92;79.65;100980.33;682388;1264;139134;-89
2023/04/08 01:19:37;;;;;;;22.70;10.80;;;;;;;9.68;80.00;100999.08;682346;1263;138502;-89
2023/04/08 01:34:42;;;;;;;15.60;9.50;;;;;;;9.38;79.39;101005.08;682516;1263;138797;-89
2023/04/08 01:49:46;;;;;;;17.10;8.90;;;;;;;9.03;79.12;101013.27;682471;1264;139355;-85
2023/04/08 02:04:49;;;;;;;17.60;9.70;;;;;;;8.92;79.50;101018.06;682513;1263;138924;-89
2023/04/08 02:20:05;;;;;;;26.00;13.20;;;;;;;8.84;79.63;101029.78;682410;1261;138449;-88
2023/04/08 02:35:11;;;;;;;25.80;12.60;;;;;;;8.66;79.75;101040.95;682718;1261;138827;-89
2023/04/08 02:50:15;;;;;;;17.80;9.10;;;;;;;8.43;79.45;101050.47;682572;1263;139785;-88
2023/04/08 03:05:18;;;;;;;19.20;9.60;;;;;;;8.14;79.06;101064.56;682562;1263;139095;-88
2023/04/08 03:20:22;;;;;;;17.00;9.30;;;;;;;7.85;78.40;101078.08;682567;1257;138869;-88
2023/04/08 03:35:26;;;;;;;14.00;8.50;;;;;;;7.63;78.58;101085.36;682631;1263;139588;-88
2023/04/08 03:50:29;;;;;;;14.80;8.60;;;;;;;7.43;78.76;101090.77;682535;1260;138787;-87
2023/04/08 04:05:32;;;;;;;17.30;9.70;;;;;;;7.30;79.20;101100.97;682773;1263;138353;-87
2023/04/08 04:20:39;;;;;;;58.70;31.80;;;;;;;7.22;78.74;101104.45;682658;1262;138544;-87
2023/04/08 04:35:43;;;;;;;47.80;34.70;;;;;;;7.15;78.97;101125.73;682771;1258;139054;-87
2023/04/08 04:50:57;;;;;;;82.60;37.60;;;;;;;7.25;79.45;101140.10;682499;1262;138666;-87
2023/04/08 05:06:00;;;;;;;20.10;12.10;;;;;;;7.37;79.81;101141.29;682670;1262;140119;-86
2023/04/08 05:21:03;;;;;;;24.50;12.20;;;;;;;7.60;80.01;101154.21;682501;1262;139083;-86
2023/04/08 05:36:07;;;;;;;17.60;10.80;;;;;;;7.92;80.25;101168.71;682722;1262;139309;-87
2023/04/08 05:51:14;;;;;;;18.40;11.60;;;;;;;8.36;80.10;101174.70;682734;1262;138737;-84
2023/04/08 06:06:18;;;;;;;22.30;13.10;;;;;;;8.76;79.95;101190.55;682715;1263;153535;-87
2023/04/08 06:21:22;;;;;;;58.50;29.10;;;;;;;9.29;79.71;101202.60;682619;1259;138770;-86
2023/04/08 06:36:39;;;;;;;81.90;32.30;;;;;;;9.90;79.43;101216.74;682689;1262;138720;-86
2023/04/08 06:51:42;;;;;;;222.00;63.70;;;;;;;10.42;78.47;101233.35;682636;1260;139608;-85
2023/04/08 07:06:46;;;;;;;246.70;99.20;;;;;;;11.11;76.76;101254.73;682574;1263;138977;-84
2023/04/08 07:21:49;;;;;;;58.00;25.30;;;;;;;12.17;75.35;101275.25;682468;1262;139578;-83
2023/04/08 07:36:52;;;;;;;75.30;28.50;;;;;;;13.07;73.96;101289.40;682561;1263;139065;-83
2023/04/08 07:51:56;;;;;;;298.60;124.50;;;;;;;13.56;71.81;101293.11;682482;1263;139056;-86
2023/04/08 08:06:59;;;;;;;42.00;20.60;;;;;;;13.85;71.84;101298.04;682694;1259;139354;-83
2023/04/08 08:22:02;;;;;;;19.60;13.70;;;;;;;15.37;71.53;101300.83;682683;1263;138940;-79
2023/04/08 08:37:06;;;;;;;47.10;25.00;;;;;;;15.87;67.59;101303.64;682706;1259;138891;-83
2023/04/08 08:52:10;;;;;;;16.70;12.10;;;;;;;16.14;66.30;101304.36;682730;1263;139553;-82
2023/04/08 09:07:13;;;;;;;31.10;17.80;;;;;;;16.41;64.74;101303.02;682502;1262;139588;-83
2023/04/08 09:22:16;;;;;;;21.80;14.30;;;;;;;17.32;64.51;101309.22;682638;1264;139497;-84
2023/04/08 09:37:20;;;;;;;18.80;12.60;;;;;;;17.88;63.14;101303.30;682654;1275;138989;-84
2023/04/08 09:52:41;;;;;;;27.70;16.00;;;;;;;18.36;61.49;101292.77;682471;1262;139095;-83
2023/04/08 10:07:44;;;;;;;18.80;12.40;;;;;;;19.08;60.19;101290.58;682718;1262;138963;-84
2023/04/08 10:22:48;;;;;;;19.40;12.40;;;;;;;19.40;57.06;101292.80;682820;1259;139185;-84
2023/04/08 10:37:52;;;;;;;19.40;13.40;;;;;;;19.94;56.37;101289.40;682656;1262;138790;-82
2023/04/08 10:52:55;;;;;;;21.50;13.70;;;;;;;20.97;56.37;101284.09;682879;1263;138562;-83
2023/04/08 11:07:59;;;;;;;22.20;15.10;;;;;;;21.61;55.93;101282.22;682629;1259;138387;-84
2023/04/08 11:23:14;;;;;;;23.50;14.80;;;;;;;22.49;54.62;101270.37;682673;1262;138534;-83
2023/04/08 11:38:22;;;;;;;24.80;17.10;;;;;;;22.81;52.29;101267.88;682437;1261;138814;-83
2023/04/08 11:53:25;;;;;;;40.70;24.50;;;;;;;22.48;50.05;101265.58;682667;1265;138849;-78
2023/04/08 12:08:28;;;;;;;13.90;10.60;;;;;;;22.64;47.62;101273.90;682353;1264;140094;-89
2023/04/08 12:23:32;;;;;;;17.50;11.10;;;;;;;23.27;47.84;101267.84;682445;1262;139938;-89
2023/04/08 12:38:36;;;;;;;20.50;13.20;;;;;;;23.84;48.01;101262.39;682378;1259;139913;-78
2023/04/08 12:53:39;;;;;;;13.70;11.00;;;;;;;23.97;46.12;101253.80;682431;1273;138603;-80
2023/04/08 13:08:42;;;;;;;20.20;13.70;;;;;;;24.40;44.87;101244.84;682337;1264;139814;-77
2023/04/08 13:23:45;;;;;;;14.60;9.50;;;;;;;23.89;42.88;101242.07;682690;1264;139578;-78
2023/04/08 13:38:49;;;;;;;29.50;18.80;;;;;;;24.82;43.41;101231.94;682384;1265;139055;-77
2023/04/08 13:53:53;;;;;;;12.00;8.50;;;;;;;25.26;43.05;101222.70;682378;1263;138714;-86
2023/04/08 14:08:56;;;;;;;12.60;9.50;;;;;;;26.84;42.85;101218.77;682159;1264;138258;-82
2023/04/08 14:23:59;;;;;;;18.40;13.80;;;;;;;31.06;37.37;101202.45;682305;1264;138094;-87
2023/04/08 14:39:04;;;;;;;9.60;8.50;;;;;;;35.22;35.71;101184.61;682261;1260;138518;-90
2023/04/08 14:54:07;;;;;;;138.60;96.60;;;;;;;39.21;33.76;101174.66;682489;1262;137775;-88
2023/04/08 15:09:11;;;;;;;14.70;13.10;;;;;;;37.86;30.65;101156.07;682398;1260;139013;-88
2023/04/08 15:24:14;;;;;;;36.50;21.00;;;;;;;33.74;32.42;101141.59;682527;1262;138869;-88
2023/04/08 15:39:18;;;;;;;23.80;16.80;;;;;;;29.77;36.67;101141.02;682299;1262;138486;-87
2023/04/08 15:54:21;;;;;;;28.90;19.80;;;;;;;30.35;35.92;101140.41;682415;1262;138296;-86
2023/04/08 16:09:25;;;;;;;79.10;47.70;;;;;;;28.43;37.37;101144.98;682207;1263;138454;-86
2023/04/08 16:24:29;;;;;;;30.30;18.00;;;;;;;24.41;39.83;101151.25;682516;1263;138225;-87
2023/04/08 16:39:32;;;;;;;23.50;15.20;;;;;;;22.21;43.00;101157.29;682378;1262;138451;-87
2023/04/08 16:54:36;;;;;;;29.30;20.50;;;;;;;21.27;44.46;101163.13;682682;1262;138545;-87
2023/04/08 17:09:39;;;;;;;103.00;50.80;;;;;;;20.45;45.41;101170.14;682449;1263;138511;-87
2023/04/08 17:24:44;;;;;;;66.60;38.30;;;;;;;19.58;47.01;101183.55;682486;1263;138477;-87
2023/04/08 17:39:50;;;;;;;143.90;81.60;;;;;;;18.89;48.85;101193.89;682458;1261;138879;-88
2023/04/08 17:54:54;;;;;;;168.40;84.10;;;;;;;18.09;50.03;101196.84;682539;1260;138468;-86
2023/04/08 18:09:58;;;;;;;138.00;68.00;;;;;;;17.36;50.80;101215.10;682317;1264;160483;-86
2023/04/08 18:25:02;;;;;;;131.80;67.30;;;;;;;16.46;51.86;101223.97;682528;1261;138439;-85
2023/04/08 18:40:28;;;;;;;109.10;57.00;;;;;;;15.74;52.92;101232.70;682508;1262;138611;-85
2023/04/08 18:55:37;;;;;;;126.70;62.10;;;;;;;15.41;53.62;101243.55;682601;1261;138475;-85
2023/04/08 19:10:43;;;;;;;209.70;96.90;;;;;;;14.91;53.99;101252.50;682647;1262;138441;-86
2023/04/08 19:25:47;;;;;;;293.00;122.70;;;;;;;14.69;54.80;101252.36;682555;1260;138433;-86
2023/04/08 19:40:50;;;;;;;215.40;98.20;;;;;;;14.57;55.41;101253.23;682289;1261;138924;-86
2023/04/08 19:55:59;;;;;;;305.60;128.90;;;;;;;14.40;56.74;101248.20;682458;1262;138450;-85
2023/04/08 20:11:03;;;;;;;123.20;59.50;;;;;;;14.31;56.74;101248.85;682362;1259;138776;-85
2023/04/08 20:26:07;;;;;;;80.30;42.00;;;;;;;14.37;57.75;101247.67;682589;1259;138517;-86
2023/04/08 20:41:17;;;;;;;113.20;54.90;;;;;;;14.35;57.79;101242.83;682611;1265;138412;-85
2023/04/08 20:56:21;;;;;;;81.90;45.20;;;;;;;14.33;57.87;101241.86;682526;1259;138783;-84
2023/04/08 21:11:27;;;;;;;87.60;44.10;;;;;;;14.28;58.36;101244.57;682750;1260;138471;-85
2023/04/08 21:26:30;;;;;;;80.90;41.00;;;;;;;14.32;59.28;101248.41;682320;1263;138337;-85
2023/04/08 21:41:34;;;;;;;85.70;44.00;;;;;;;14.29;59.99;101243.94;682331;1260;138158;-86
2023/04/08 21:56:37;;;;;;;53.10;26.70;;;;;;;14.17;60.89;101242.88;682493;1262;138360;-85
2023/04/08 22:11:42;;;;;;;47.70;24.90;;;;;;;14.14;60.99;101238.05;682802;1259;138552;-85
2023/04/08 22:26:45;;;;;;;61.10;29.30;;;;;;;14.12;61.21;101228.67;682765;1259;139073;-85
2023/04/08 22:41:49;;;;;;;52.90;25.30;;;;;;;14.06;61.78;101222.77;682777;1259;139024;-85
2023/04/08 22:56:52;;;;;;;51.70;26.60;;;;;;;14.05;62.16;101226.67;682564;1262;139157;-85
2023/04/08 23:11:56;;;;;;;50.30;25.60;;;;;;;13.96;62.68;101223.94;682458;1259;138898;-86
2023/04/08 23:27:01;;;;;;;69.30;32.80;;;;;;;13.90;62.94;101221.15;682623;1263;139720;-84
2023/04/08 23:42:04;;;;;;;62.70;33.20;;;;;;;13.74;63.58;101221.92;682759;1259;138950;-83
2023/04/08 23:57:07;;;;;;;45.00;23.20;;;;;;;13.65;63.65;101212.88;682462;1264;139156;-83
